sensor_id;sensor_type;location;lat;lon;timestamp;P1;durP1;ratioP1;P2;durP2;ratioP2
22332;SDS011;11334;36.986;-121.936;2023-05-23T00:01:04;17.15;;;5.05;;
22332;SDS011;11334;36.986;-121.936;2023-05-23T00:03:31;16.80;;;5.57;;
22332;SDS011;11334;36.986;-121.936;2023-05-23T00:06:00;15.05;;;4.70;;
22332;SDS011;11334;36.986;-121.936;2023-05-23T00:08:27;15.25;;;5.90;;
22332;SDS011;11334;36.986;-121.936;2023-05-23T00:10:53;13.02;;;5.68;;
22332;SDS011;11334;36.986;-121.936;2023-05-23T00:13:19;13.90;;;5.03;;
22332;SDS011;11334;36.986;-121.936;2023-05-23T00:15:45;21.63;;;6.05;;
22332;SDS011;11334;36.986;-121.936;2023-05-23T00:18:12;14.18;;;5.50;;
22332;SDS011;11334;36.986;-121.936;2023-05-23T00:20:40;14.43;;;5.38;;
22332;SDS011;11334;36.986;-121.936;2023-05-23T00:23:10;21.98;;;6.40;;
22332;SDS011;11334;36.986;-121.936;2023-05-23T00:25:46;22.48;;;7.35;;
22332;SDS011;11334;36.986;-121.936;2023-05-23T00:28:17;23.50;;;6.70;;
22332;SDS011;11334;36.986;-121.936;2023-05-23T00:30:43;22.23;;;6.85;;
22332;SDS011;11334;36.986;-121.936;2023-05-23T00:33:10;20.52;;;6.43;;
22332;SDS011;11334;36.986;-121.936;2023-05-23T00:35:39;18.10;;;6.70;;
22332;SDS011;11334;36.986;-121.936;2023-05-23T00:38:06;19.55;;;6.38;;
22332;SDS011;11334;36.986;-121.936;2023-05-23T00:40:32;21.73;;;7.18;;
22332;SDS011;11334;36.986;-121.936;2023-05-23T00:42:59;17.10;;;6.30;;
22332;SDS011;11334;36.986;-121.936;2023-05-23T00:45:26;26.42;;;8.20;;
22332;SDS011;11334;36.986;-121.936;2023-05-23T00:47:52;25.55;;;7.55;;
22332;SDS011;11334;36.986;-121.936;2023-05-23T00:50:19;23.25;;;7.47;;
22332;SDS011;11334;36.986;-121.936;2023-05-23T00:52:47;25.13;;;7.45;;
22332;SDS011;11334;36.986;-121.936;2023-05-23T00:55:14;29.83;;;8.25;;
22332;SDS011;11334;36.986;-121.936;2023-05-23T00:57:40;26.77;;;7.57;;
22332;SDS011;11334;36.986;-121.936;2023-05-23T01:00:09;28.85;;;8.32;;
22332;SDS011;11334;36.986;-121.936;2023-05-23T01:02:39;23.00;;;8.20;;
22332;SDS011;11334;36.986;-121.936;2023-05-23T01:05:11;25.60;;;7.70;;
22332;SDS011;11334;36.986;-121.936;2023-05-23T01:07:48;25.75;;;8.23;;
22332;SDS011;11334;36.986;-121.936;2023-05-23T01:10:15;27.83;;;7.78;;
22332;SDS011;11334;36.986;-121.936;2023-05-23T01:15:41;23.80;;;8.27;;
22332;SDS011;11334;36.986;-121.936;2023-05-23T01:21:04;30.80;;;8.75;;
22332;SDS011;11334;36.986;-121.936;2023-05-23T01:26:28;28.60;;;8.73;;
22332;SDS011;11334;36.986;-121.936;2023-05-23T01:29:18;28.17;;;8.20;;
22332;SDS011;11334;36.986;-121.936;2023-05-23T01:31:54;28.73;;;8.25;;
22332;SDS011;11334;36.986;-121.936;2023-05-23T01:34:23;27.63;;;7.93;;
22332;SDS011;11334;36.986;-121.936;2023-05-23T01:36:52;22.52;;;7.40;;
22332;SDS011;11334;36.986;-121.936;2023-05-23T01:39:22;24.15;;;7.50;;
22332;SDS011;11334;36.986;-121.936;2023-05-23T01:41:49;29.33;;;9.10;;
22332;SDS011;11334;36.986;-121.936;2023-05-23T01:44:17;31.83;;;8.75;;
22332;SDS011;11334;36.986;-121.936;2023-05-23T01:46:43;29.58;;;7.45;;
22332;SDS011;11334;36.986;-121.936;2023-05-23T01:49:12;28.35;;;7.97;;
22332;SDS011;11334;36.986;-121.936;2023-05-23T01:51:40;30.77;;;8.02;;
22332;SDS011;11334;36.986;-121.936;2023-05-23T01:54:07;23.45;;;8.07;;
22332;SDS011;11334;36.986;-121.936;2023-05-23T01:56:33;32.15;;;8.20;;
22332;SDS011;11334;36.986;-121.936;2023-05-23T01:59:00;27.92;;;8.13;;
22332;SDS011;11334;36.986;-121.936;2023-05-23T02:01:28;26.50;;;8.48;;
22332;SDS011;11334;36.986;-121.936;2023-05-23T02:03:54;30.75;;;8.73;;
22332;SDS011;11334;36.986;-121.936;2023-05-23T02:06:21;27.63;;;8.80;;
22332;SDS011;11334;36.986;-121.936;2023-05-23T02:08:47;33.92;;;8.77;;
22332;SDS011;11334;36.986;-121.936;2023-05-23T02:11:13;29.02;;;7.63;;
22332;SDS011;11334;36.986;-121.936;2023-05-23T02:13:40;26.98;;;7.93;;
22332;SDS011;11334;36.986;-121.936;2023-05-23T02:16:06;31.75;;;8.38;;
22332;SDS011;11334;36.986;-121.936;2023-05-23T02:18:33;30.77;;;8.55;;
22332;SDS011;11334;36.986;-121.936;2023-05-23T02:21:03;27.15;;;8.43;;
22332;SDS011;11334;36.986;-121.936;2023-05-23T02:23:32;36.03;;;8.90;;
22332;SDS011;11334;36.986;-121.936;2023-05-23T02:25:58;28.13;;;8.43;;
22332;SDS011;11334;36.986;-121.936;2023-05-23T02:28:24;28.58;;;8.52;;
22332;SDS011;11334;36.986;-121.936;2023-05-23T02:30:51;24.25;;;7.47;;
22332;SDS011;11334;36.986;-121.936;2023-05-23T02:33:17;28.30;;;8.80;;
22332;SDS011;11334;36.986;-121.936;2023-05-23T02:35:43;30.40;;;8.13;;
22332;SDS011;11334;36.986;-121.936;2023-05-23T02:38:10;30.67;;;8.10;;
22332;SDS011;11334;36.986;-121.936;2023-05-23T02:40:36;33.30;;;9.98;;
22332;SDS011;11334;36.986;-121.936;2023-05-23T02:43:02;28.60;;;8.70;;
22332;SDS011;11334;36.986;-121.936;2023-05-23T02:45:29;32.95;;;8.80;;
22332;SDS011;11334;36.986;-121.936;2023-05-23T02:47:55;29.50;;;9.30;;
22332;SDS011;11334;36.986;-121.936;2023-05-23T02:50:21;30.35;;;8.55;;
22332;SDS011;11334;36.986;-121.936;2023-05-23T02:52:47;34.20;;;8.82;;
22332;SDS011;11334;36.986;-121.936;2023-05-23T02:55:14;32.75;;;9.43;;
22332;SDS011;11334;36.986;-121.936;2023-05-23T02:57:40;34.17;;;8.68;;
22332;SDS011;11334;36.986;-121.936;2023-05-23T03:00:06;25.27;;;7.93;;
22332;SDS011;11334;36.986;-121.936;2023-05-23T03:02:34;30.55;;;8.90;;
22332;SDS011;11334;36.986;-121.936;2023-05-23T03:05:00;38.45;;;9.57;;
22332;SDS011;11334;36.986;-121.936;2023-05-23T03:07:28;29.20;;;9.18;;
22332;SDS011;11334;36.986;-121.936;2023-05-23T03:09:54;36.05;;;9.18;;
22332;SDS011;11334;36.986;-121.936;2023-05-23T03:12:21;39.40;;;9.85;;
22332;SDS011;11334;36.986;-121.936;2023-05-23T03:14:47;30.15;;;8.40;;
22332;SDS011;11334;36.986;-121.936;2023-05-23T03:17:13;33.95;;;9.60;;
22332;SDS011;11334;36.986;-121.936;2023-05-23T03:19:40;33.05;;;9.25;;
22332;SDS011;11334;36.986;-121.936;2023-05-23T03:22:06;29.15;;;9.27;;
22332;SDS011;11334;36.986;-121.936;2023-05-23T03:24:33;34.58;;;9.57;;
22332;SDS011;11334;36.986;-121.936;2023-05-23T03:26:59;35.92;;;9.23;;
22332;SDS011;11334;36.986;-121.936;2023-05-23T03:29:26;33.72;;;8.75;;
22332;SDS011;11334;36.986;-121.936;2023-05-23T03:31:52;41.40;;;9.43;;
22332;SDS011;11334;36.986;-121.936;2023-05-23T03:34:18;36.08;;;9.85;;
22332;SDS011;11334;36.986;-121.936;2023-05-23T03:36:44;37.28;;;10.15;;
22332;SDS011;11334;36.986;-121.936;2023-05-23T03:39:11;30.45;;;9.90;;
22332;SDS011;11334;36.986;-121.936;2023-05-23T03:41:37;35.38;;;10.13;;
22332;SDS011;11334;36.986;-121.936;2023-05-23T03:44:03;41.08;;;10.68;;
22332;SDS011;11334;36.986;-121.936;2023-05-23T03:46:30;37.95;;;10.35;;
22332;SDS011;11334;36.986;-121.936;2023-05-23T03:48:56;45.67;;;10.48;;
22332;SDS011;11334;36.986;-121.936;2023-05-23T03:51:22;42.47;;;9.85;;
22332;SDS011;11334;36.986;-121.936;2023-05-23T03:53:48;32.38;;;10.77;;
22332;SDS011;11334;36.986;-121.936;2023-05-23T03:56:14;40.15;;;10.23;;
22332;SDS011;11334;36.986;-121.936;2023-05-23T03:58:41;37.58;;;9.35;;
22332;SDS011;11334;36.986;-121.936;2023-05-23T04:01:07;44.20;;;10.98;;
22332;SDS011;11334;36.986;-121.936;2023-05-23T04:03:33;43.78;;;9.30;;
22332;SDS011;11334;36.986;-121.936;2023-05-23T04:05:59;35.92;;;9.88;;
22332;SDS011;11334;36.986;-121.936;2023-05-23T04:08:26;36.45;;;9.90;;
22332;SDS011;11334;36.986;-121.936;2023-05-23T04:10:54;36.17;;;9.93;;
22332;SDS011;11334;36.986;-121.936;2023-05-23T04:13:20;36.65;;;9.60;;
22332;SDS011;11334;36.986;-121.936;2023-05-23T04:15:49;34.88;;;10.73;;
22332;SDS011;11334;36.986;-121.936;2023-05-23T04:18:16;46.95;;;10.80;;
22332;SDS011;11334;36.986;-121.936;2023-05-23T04:20:43;40.40;;;9.80;;
22332;SDS011;11334;36.986;-121.936;2023-05-23T04:23:09;36.72;;;9.90;;
22332;SDS011;11334;36.986;-121.936;2023-05-23T04:25:35;40.92;;;10.55;;
22332;SDS011;11334;36.986;-121.936;2023-05-23T04:28:01;33.83;;;9.88;;
22332;SDS011;11334;36.986;-121.936;2023-05-23T04:30:27;47.47;;;11.10;;
22332;SDS011;11334;36.986;-121.936;2023-05-23T04:32:54;36.45;;;10.18;;
22332;SDS011;11334;36.986;-121.936;2023-05-23T04:35:22;43.13;;;10.38;;
22332;SDS011;11334;36.986;-121.936;2023-05-23T04:37:48;33.15;;;10.07;;
22332;SDS011;11334;36.986;-121.936;2023-05-23T04:40:21;46.47;;;10.98;;
22332;SDS011;11334;36.986;-121.936;2023-05-23T04:42:48;37.88;;;10.40;;
22332;SDS011;11334;36.986;-121.936;2023-05-23T04:45:18;44.50;;;10.05;;
22332;SDS011;11334;36.986;-121.936;2023-05-23T04:47:44;38.88;;;10.18;;
22332;SDS011;11334;36.986;-121.936;2023-05-23T04:50:12;39.90;;;10.70;;
22332;SDS011;11334;36.986;-121.936;2023-05-23T04:52:41;43.42;;;10.85;;
22332;SDS011;11334;36.986;-121.936;2023-05-23T04:55:07;29.70;;;9.38;;
22332;SDS011;11334;36.986;-121.936;2023-05-23T04:57:34;35.08;;;10.25;;
22332;SDS011;11334;36.986;-121.936;2023-05-23T05:00:01;35.38;;;9.55;;
22332;SDS011;11334;36.986;-121.936;2023-05-23T05:02:37;35.33;;;9.18;;
22332;SDS011;11334;36.986;-121.936;2023-05-23T05:05:04;41.33;;;10.02;;
22332;SDS011;11334;36.986;-121.936;2023-05-23T05:07:30;39.67;;;9.98;;
22332;SDS011;11334;36.986;-121.936;2023-05-23T05:09:56;35.28;;;9.63;;
22332;SDS011;11334;36.986;-121.936;2023-05-23T05:12:22;35.20;;;9.02;;
22332;SDS011;11334;36.986;-121.936;2023-05-23T05:14:49;40.78;;;9.38;;
22332;SDS011;11334;36.986;-121.936;2023-05-23T05:17:15;37.72;;;9.32;;
22332;SDS011;11334;36.986;-121.936;2023-05-23T05:19:42;29.92;;;8.43;;
22332;SDS011;11334;36.986;-121.936;2023-05-23T05:22:09;29.38;;;7.97;;
22332;SDS011;11334;36.986;-121.936;2023-05-23T05:24:36;31.08;;;9.68;;
22332;SDS011;11334;36.986;-121.936;2023-05-23T05:27:02;32.83;;;8.75;;
22332;SDS011;11334;36.986;-121.936;2023-05-23T05:29:31;30.85;;;7.57;;
22332;SDS011;11334;36.986;-121.936;2023-05-23T05:31:58;29.80;;;8.05;;
22332;SDS011;11334;36.986;-121.936;2023-05-23T05:34:25;26.60;;;8.13;;
22332;SDS011;11334;36.986;-121.936;2023-05-23T05:36:52;28.70;;;7.65;;
22332;SDS011;11334;36.986;-121.936;2023-05-23T05:39:21;33.97;;;8.23;;
22332;SDS011;11334;36.986;-121.936;2023-05-23T05:41:50;19.65;;;6.88;;
22332;SDS011;11334;36.986;-121.936;2023-05-23T05:44:16;24.15;;;7.65;;
22332;SDS011;11334;36.986;-121.936;2023-05-23T05:46:42;22.08;;;6.80;;
22332;SDS011;11334;36.986;-121.936;2023-05-23T05:49:08;25.35;;;6.93;;
22332;SDS011;11334;36.986;-121.936;2023-05-23T05:51:34;28.10;;;7.72;;
22332;SDS011;11334;36.986;-121.936;2023-05-23T05:54:01;26.65;;;8.13;;
22332;SDS011;11334;36.986;-121.936;2023-05-23T05:56:27;25.75;;;7.35;;
22332;SDS011;11334;36.986;-121.936;2023-05-23T05:58:53;31.63;;;8.43;;
22332;SDS011;11334;36.986;-121.936;2023-05-23T06:01:19;34.38;;;8.38;;
22332;SDS011;11334;36.986;-121.936;2023-05-23T06:03:46;21.48;;;7.22;;
22332;SDS011;11334;36.986;-121.936;2023-05-23T06:06:12;26.52;;;7.43;;
22332;SDS011;11334;36.986;-121.936;2023-05-23T06:08:38;21.27;;;6.78;;
22332;SDS011;11334;36.986;-121.936;2023-05-23T06:11:05;19.30;;;6.22;;
22332;SDS011;11334;36.986;-121.936;2023-05-23T06:13:31;22.58;;;6.65;;
22332;SDS011;11334;36.986;-121.936;2023-05-23T06:15:58;21.23;;;6.75;;
22332;SDS011;11334;36.986;-121.936;2023-05-23T06:18:24;19.50;;;6.95;;
22332;SDS011;11334;36.986;-121.936;2023-05-23T06:20:50;26.67;;;6.97;;
22332;SDS011;11334;36.986;-121.936;2023-05-23T06:23:16;22.42;;;6.30;;
22332;SDS011;11334;36.986;-121.936;2023-05-23T06:25:43;27.00;;;7.57;;
22332;SDS011;11334;36.986;-121.936;2023-05-23T06:28:09;22.23;;;7.07;;
22332;SDS011;11334;36.986;-121.936;2023-05-23T06:30:35;20.15;;;6.55;;
22332;SDS011;11334;36.986;-121.936;2023-05-23T06:33:03;29.38;;;7.85;;
22332;SDS011;11334;36.986;-121.936;2023-05-23T06:35:29;25.67;;;7.40;;
22332;SDS011;11334;36.986;-121.936;2023-05-23T06:37:55;29.48;;;6.43;;
22332;SDS011;11334;36.986;-121.936;2023-05-23T06:40:22;26.83;;;7.68;;
22332;SDS011;11334;36.986;-121.936;2023-05-23T06:42:48;17.92;;;6.72;;
22332;SDS011;11334;36.986;-121.936;2023-05-23T06:45:14;18.27;;;6.88;;
22332;SDS011;11334;36.986;-121.936;2023-05-23T06:47:41;17.75;;;6.53;;
22332;SDS011;11334;36.986;-121.936;2023-05-23T06:50:12;20.45;;;6.65;;
22332;SDS011;11334;36.986;-121.936;2023-05-23T06:52:44;19.73;;;6.38;;
22332;SDS011;11334;36.986;-121.936;2023-05-23T06:55:11;20.88;;;7.35;;
22332;SDS011;11334;36.986;-121.936;2023-05-23T06:57:42;21.05;;;6.95;;
22332;SDS011;11334;36.986;-121.936;2023-05-23T07:00:09;22.45;;;6.40;;
22332;SDS011;11334;36.986;-121.936;2023-05-23T07:02:37;22.65;;;6.75;;
22332;SDS011;11334;36.986;-121.936;2023-05-23T07:05:04;18.67;;;6.40;;
22332;SDS011;11334;36.986;-121.936;2023-05-23T07:07:30;20.92;;;6.68;;
22332;SDS011;11334;36.986;-121.936;2023-05-23T07:09:57;21.15;;;7.03;;
22332;SDS011;11334;36.986;-121.936;2023-05-23T07:12:23;17.65;;;6.35;;
22332;SDS011;11334;36.986;-121.936;2023-05-23T07:14:49;24.65;;;6.38;;
22332;SDS011;11334;36.986;-121.936;2023-05-23T07:17:15;17.20;;;5.70;;
22332;SDS011;11334;36.986;-121.936;2023-05-23T07:19:42;19.92;;;5.68;;
22332;SDS011;11334;36.986;-121.936;2023-05-23T07:22:08;18.45;;;5.15;;
22332;SDS011;11334;36.986;-121.936;2023-05-23T07:24:34;17.80;;;5.82;;
22332;SDS011;11334;36.986;-121.936;2023-05-23T07:27:01;16.38;;;5.68;;
22332;SDS011;11334;36.986;-121.936;2023-05-23T07:29:27;21.15;;;6.05;;
22332;SDS011;11334;36.986;-121.936;2023-05-23T07:31:53;19.58;;;6.22;;
22332;SDS011;11334;36.986;-121.936;2023-05-23T07:34:20;13.07;;;5.93;;
22332;SDS011;11334;36.986;-121.936;2023-05-23T07:36:46;13.85;;;5.50;;
22332;SDS011;11334;36.986;-121.936;2023-05-23T07:39:14;11.43;;;4.57;;
22332;SDS011;11334;36.986;-121.936;2023-05-23T07:41:46;16.98;;;6.10;;
22332;SDS011;11334;36.986;-121.936;2023-05-23T07:44:13;14.23;;;5.38;;
22332;SDS011;11334;36.986;-121.936;2023-05-23T07:46:39;17.52;;;5.43;;
22332;SDS011;11334;36.986;-121.936;2023-05-23T07:49:06;12.65;;;5.32;;
22332;SDS011;11334;36.986;-121.936;2023-05-23T07:51:32;19.80;;;5.43;;
22332;SDS011;11334;36.986;-121.936;2023-05-23T07:53:58;12.90;;;5.35;;
22332;SDS011;11334;36.986;-121.936;2023-05-23T07:56:25;11.30;;;4.60;;
22332;SDS011;11334;36.986;-121.936;2023-05-23T07:58:52;11.15;;;5.10;;
22332;SDS011;11334;36.986;-121.936;2023-05-23T08:01:19;13.77;;;4.93;;
22332;SDS011;11334;36.986;-121.936;2023-05-23T08:03:46;12.02;;;4.47;;
22332;SDS011;11334;36.986;-121.936;2023-05-23T08:06:12;15.30;;;4.40;;
22332;SDS011;11334;36.986;-121.936;2023-05-23T08:08:38;8.20;;;3.78;;
22332;SDS011;11334;36.986;-121.936;2023-05-23T08:11:05;10.43;;;3.92;;
22332;SDS011;11334;36.986;-121.936;2023-05-23T08:13:31;9.88;;;4.22;;
22332;SDS011;11334;36.986;-121.936;2023-05-23T08:15:58;12.80;;;4.55;;
22332;SDS011;11334;36.986;-121.936;2023-05-23T08:18:24;12.38;;;4.47;;
22332;SDS011;11334;36.986;-121.936;2023-05-23T08:20:50;10.00;;;4.32;;
22332;SDS011;11334;36.986;-121.936;2023-05-23T08:23:16;15.77;;;3.92;;
22332;SDS011;11334;36.986;-121.936;2023-05-23T08:25:43;5.90;;;3.42;;
22332;SDS011;11334;36.986;-121.936;2023-05-23T08:28:09;10.02;;;3.78;;
22332;SDS011;11334;36.986;-121.936;2023-05-23T08:30:35;9.95;;;3.53;;
22332;SDS011;11334;36.986;-121.936;2023-05-23T08:33:01;8.65;;;3.17;;
22332;SDS011;11334;36.986;-121.936;2023-05-23T08:35:31;8.07;;;3.42;;
22332;SDS011;11334;36.986;-121.936;2023-05-23T08:37:59;9.52;;;3.95;;
22332;SDS011;11334;36.986;-121.936;2023-05-23T08:40:26;9.63;;;3.30;;
22332;SDS011;11334;36.986;-121.936;2023-05-23T08:42:56;10.98;;;4.15;;
22332;SDS011;11334;36.986;-121.936;2023-05-23T08:45:22;10.65;;;3.67;;
22332;SDS011;11334;36.986;-121.936;2023-05-23T08:47:48;12.52;;;3.67;;
22332;SDS011;11334;36.986;-121.936;2023-05-23T08:50:17;11.40;;;4.00;;
22332;SDS011;11334;36.986;-121.936;2023-05-23T08:52:47;8.05;;;3.78;;
22332;SDS011;11334;36.986;-121.936;2023-05-23T08:55:17;16.38;;;4.93;;
22332;SDS011;11334;36.986;-121.936;2023-05-23T08:57:44;13.13;;;4.50;;
22332;SDS011;11334;36.986;-121.936;2023-05-23T09:00:11;14.13;;;4.10;;
22332;SDS011;11334;36.986;-121.936;2023-05-23T09:02:45;15.00;;;4.93;;
22332;SDS011;11334;36.986;-121.936;2023-05-23T09:05:11;14.52;;;4.47;;
22332;SDS011;11334;36.986;-121.936;2023-05-23T09:07:39;14.15;;;4.68;;
22332;SDS011;11334;36.986;-121.936;2023-05-23T09:10:06;14.07;;;4.82;;
22332;SDS011;11334;36.986;-121.936;2023-05-23T09:12:34;20.30;;;5.95;;
22332;SDS011;11334;36.986;-121.936;2023-05-23T09:15:04;20.13;;;6.72;;
22332;SDS011;11334;36.986;-121.936;2023-05-23T09:17:35;21.55;;;6.75;;
22332;SDS011;11334;36.986;-121.936;2023-05-23T09:20:11;21.88;;;6.95;;
22332;SDS011;11334;36.986;-121.936;2023-05-23T09:22:38;24.30;;;7.57;;
22332;SDS011;11334;36.986;-121.936;2023-05-23T09:25:05;23.52;;;7.57;;
22332;SDS011;11334;36.986;-121.936;2023-05-23T09:27:32;22.48;;;6.90;;
22332;SDS011;11334;36.986;-121.936;2023-05-23T09:30:06;27.00;;;7.53;;
22332;SDS011;11334;36.986;-121.936;2023-05-23T09:32:34;24.10;;;7.57;;
22332;SDS011;11334;36.986;-121.936;2023-05-23T09:35:01;25.75;;;7.30;;
22332;SDS011;11334;36.986;-121.936;2023-05-23T09:37:35;26.50;;;7.20;;
22332;SDS011;11334;36.986;-121.936;2023-05-23T09:40:08;26.52;;;7.35;;
22332;SDS011;11334;36.986;-121.936;2023-05-23T09:42:40;27.67;;;7.57;;
22332;SDS011;11334;36.986;-121.936;2023-05-23T09:45:13;27.90;;;7.30;;
22332;SDS011;11334;36.986;-121.936;2023-05-23T09:47:50;25.58;;;7.25;;
22332;SDS011;11334;36.986;-121.936;2023-05-23T09:50:17;26.63;;;7.50;;
22332;SDS011;11334;36.986;-121.936;2023-05-23T09:52:44;26.55;;;7.70;;
22332;SDS011;11334;36.986;-121.936;2023-05-23T09:55:11;29.92;;;7.63;;
22332;SDS011;11334;36.986;-121.936;2023-05-23T09:57:41;28.15;;;7.13;;
22332;SDS011;11334;36.986;-121.936;2023-05-23T10:00:11;25.77;;;6.93;;
22332;SDS011;11334;36.986;-121.936;2023-05-23T10:05:46;30.90;;;7.15;;
22332;SDS011;11334;36.986;-121.936;2023-05-23T10:08:15;25.08;;;7.72;;
22332;SDS011;11334;36.986;-121.936;2023-05-23T10:13:15;21.85;;;5.97;;
22332;SDS011;11334;36.986;-121.936;2023-05-23T10:15:42;17.80;;;6.25;;
22332;SDS011;11334;36.986;-121.936;2023-05-23T10:18:15;22.30;;;5.75;;
22332;SDS011;11334;36.986;-121.936;2023-05-23T10:20:48;27.88;;;7.07;;
22332;SDS011;11334;36.986;-121.936;2023-05-23T10:23:18;18.27;;;5.90;;
22332;SDS011;11334;36.986;-121.936;2023-05-23T10:25:46;22.77;;;6.45;;
22332;SDS011;11334;36.986;-121.936;2023-05-23T10:28:13;22.50;;;6.47;;
22332;SDS011;11334;36.986;-121.936;2023-05-23T10:30:40;22.70;;;5.97;;
22332;SDS011;11334;36.986;-121.936;2023-05-23T10:33:07;23.67;;;6.13;;
22332;SDS011;11334;36.986;-121.936;2023-05-23T10:36:12;23.35;;;5.82;;
22332;SDS011;11334;36.986;-121.936;2023-05-23T10:38:40;16.67;;;5.38;;
22332;SDS011;11334;36.986;-121.936;2023-05-23T10:43:50;17.80;;;5.97;;
22332;SDS011;11334;36.986;-121.936;2023-05-23T10:46:48;18.58;;;5.18;;
22332;SDS011;11334;36.986;-121.936;2023-05-23T10:49:19;16.67;;;5.18;;
22332;SDS011;11334;36.986;-121.936;2023-05-23T10:51:49;17.98;;;5.28;;
22332;SDS011;11334;36.986;-121.936;2023-05-23T10:54:18;17.38;;;4.78;;
22332;SDS011;11334;36.986;-121.936;2023-05-23T10:56:45;21.30;;;5.63;;
22332;SDS011;11334;36.986;-121.936;2023-05-23T10:59:20;20.23;;;5.82;;
22332;SDS011;11334;36.986;-121.936;2023-05-23T11:01:50;24.88;;;6.10;;
22332;SDS011;11334;36.986;-121.936;2023-05-23T11:04:23;15.68;;;5.20;;
22332;SDS011;11334;36.986;-121.936;2023-05-23T11:06:52;17.20;;;4.97;;
22332;SDS011;11334;36.986;-121.936;2023-05-23T11:09:22;13.15;;;4.13;;
22332;SDS011;11334;36.986;-121.936;2023-05-23T11:11:58;18.63;;;4.90;;
22332;SDS011;11334;36.986;-121.936;2023-05-23T11:16:56;18.15;;;5.55;;
22332;SDS011;11334;36.986;-121.936;2023-05-23T11:19:24;18.02;;;4.68;;
22332;SDS011;11334;36.986;-121.936;2023-05-23T11:21:56;12.98;;;4.45;;
22332;SDS011;11334;36.986;-121.936;2023-05-23T11:27:32;12.52;;;4.30;;
22332;SDS011;11334;36.986;-121.936;2023-05-23T11:32:40;13.70;;;4.00;;
22332;SDS011;11334;36.986;-121.936;2023-05-23T11:35:08;17.20;;;5.03;;
22332;SDS011;11334;36.986;-121.936;2023-05-23T11:37:36;13.55;;;4.20;;
22332;SDS011;11334;36.986;-121.936;2023-05-23T11:42:53;19.23;;;4.90;;
22332;SDS011;11334;36.986;-121.936;2023-05-23T11:45:21;15.07;;;4.35;;
22332;SDS011;11334;36.986;-121.936;2023-05-23T11:47:47;11.30;;;4.10;;
22332;SDS011;11334;36.986;-121.936;2023-05-23T11:50:14;11.98;;;3.88;;
22332;SDS011;11334;36.986;-121.936;2023-05-23T11:52:41;12.75;;;4.90;;
22332;SDS011;11334;36.986;-121.936;2023-05-23T11:55:07;11.75;;;4.63;;
22332;SDS011;11334;36.986;-121.936;2023-05-23T11:57:37;13.32;;;5.13;;
22332;SDS011;11334;36.986;-121.936;2023-05-23T12:00:07;12.75;;;4.63;;
22332;SDS011;11334;36.986;-121.936;2023-05-23T12:02:38;12.20;;;4.43;;
22332;SDS011;11334;36.986;-121.936;2023-05-23T12:05:08;16.23;;;4.40;;
22332;SDS011;11334;36.986;-121.936;2023-05-23T12:07:39;13.25;;;3.70;;
22332;SDS011;11334;36.986;-121.936;2023-05-23T12:10:11;13.90;;;4.05;;
22332;SDS011;11334;36.986;-121.936;2023-05-23T12:12:39;10.20;;;4.10;;
22332;SDS011;11334;36.986;-121.936;2023-05-23T12:15:09;8.52;;;3.47;;
22332;SDS011;11334;36.986;-121.936;2023-05-23T12:17:36;11.63;;;3.92;;
22332;SDS011;11334;36.986;-121.936;2023-05-23T12:20:11;12.98;;;3.47;;
22332;SDS011;11334;36.986;-121.936;2023-05-23T12:22:38;12.95;;;3.80;;
22332;SDS011;11334;36.986;-121.936;2023-05-23T12:25:07;12.18;;;3.95;;
22332;SDS011;11334;36.986;-121.936;2023-05-23T12:27:34;11.27;;;3.45;;
22332;SDS011;11334;36.986;-121.936;2023-05-23T12:30:05;12.93;;;3.42;;
22332;SDS011;11334;36.986;-121.936;2023-05-23T12:32:39;7.43;;;3.00;;
22332;SDS011;11334;36.986;-121.936;2023-05-23T12:35:07;9.43;;;3.45;;
22332;SDS011;11334;36.986;-121.936;2023-05-23T12:37:43;9.13;;;3.30;;
22332;SDS011;11334;36.986;-121.936;2023-05-23T12:43:01;9.93;;;3.83;;
22332;SDS011;11334;36.986;-121.936;2023-05-23T12:45:31;8.90;;;3.00;;
22332;SDS011;11334;36.986;-121.936;2023-05-23T12:47:59;10.07;;;3.38;;
22332;SDS011;11334;36.986;-121.936;2023-05-23T12:50:26;8.60;;;2.97;;
22332;SDS011;11334;36.986;-121.936;2023-05-23T12:52:52;10.13;;;2.75;;
22332;SDS011;11334;36.986;-121.936;2023-05-23T12:55:18;11.63;;;3.42;;
22332;SDS011;11334;36.986;-121.936;2023-05-23T12:57:45;5.47;;;2.67;;
22332;SDS011;11334;36.986;-121.936;2023-05-23T13:00:11;7.38;;;2.97;;
22332;SDS011;11334;36.986;-121.936;2023-05-23T13:02:38;6.35;;;2.88;;
22332;SDS011;11334;36.986;-121.936;2023-05-23T13:05:05;9.07;;;3.03;;
22332;SDS011;11334;36.986;-121.936;2023-05-23T13:07:31;10.00;;;3.08;;
22332;SDS011;11334;36.986;-121.936;2023-05-23T13:09:58;8.50;;;2.78;;
22332;SDS011;11334;36.986;-121.936;2023-05-23T13:12:24;6.10;;;2.90;;
22332;SDS011;11334;36.986;-121.936;2023-05-23T13:14:50;10.18;;;3.33;;
22332;SDS011;11334;36.986;-121.936;2023-05-23T13:17:17;9.38;;;3.22;;
22332;SDS011;11334;36.986;-121.936;2023-05-23T13:19:43;8.73;;;3.90;;
22332;SDS011;11334;36.986;-121.936;2023-05-23T13:22:09;11.13;;;3.55;;
22332;SDS011;11334;36.986;-121.936;2023-05-23T13:24:38;13.65;;;3.80;;
22332;SDS011;11334;36.986;-121.936;2023-05-23T13:27:07;9.90;;;2.97;;
22332;SDS011;11334;36.986;-121.936;2023-05-23T13:29:34;9.63;;;3.35;;
22332;SDS011;11334;36.986;-121.936;2023-05-23T13:32:00;10.35;;;3.40;;
22332;SDS011;11334;36.986;-121.936;2023-05-23T13:34:26;10.10;;;3.58;;
22332;SDS011;11334;36.986;-121.936;2023-05-23T13:36:53;14.07;;;4.55;;
22332;SDS011;11334;36.986;-121.936;2023-05-23T13:39:19;11.93;;;3.67;;
22332;SDS011;11334;36.986;-121.936;2023-05-23T13:41:47;14.18;;;4.20;;
22332;SDS011;11334;36.986;-121.936;2023-05-23T13:44:14;16.08;;;4.47;;
22332;SDS011;11334;36.986;-121.936;2023-05-23T13:46:41;12.05;;;4.03;;
22332;SDS011;11334;36.986;-121.936;2023-05-23T13:49:08;11.05;;;3.28;;
22332;SDS011;11334;36.986;-121.936;2023-05-23T13:51:34;15.13;;;3.92;;
22332;SDS011;11334;36.986;-121.936;2023-05-23T13:54:02;10.90;;;3.60;;
22332;SDS011;11334;36.986;-121.936;2023-05-23T13:56:29;12.45;;;3.95;;
22332;SDS011;11334;36.986;-121.936;2023-05-23T13:58:55;8.65;;;3.55;;
22332;SDS011;11334;36.986;-121.936;2023-05-23T14:01:21;11.52;;;2.88;;
22332;SDS011;11334;36.986;-121.936;2023-05-23T14:03:48;9.85;;;4.03;;
22332;SDS011;11334;36.986;-121.936;2023-05-23T14:06:15;11.98;;;3.22;;
22332;SDS011;11334;36.986;-121.936;2023-05-23T14:08:41;8.40;;;2.88;;
22332;SDS011;11334;36.986;-121.936;2023-05-23T14:11:08;11.60;;;3.08;;
22332;SDS011;11334;36.986;-121.936;2023-05-23T14:13:34;9.02;;;3.40;;
22332;SDS011;11334;36.986;-121.936;2023-05-23T14:16:00;7.13;;;2.97;;
22332;SDS011;11334;36.986;-121.936;2023-05-23T14:18:26;10.38;;;3.05;;
22332;SDS011;11334;36.986;-121.936;2023-05-23T14:20:52;7.20;;;3.40;;
22332;SDS011;11334;36.986;-121.936;2023-05-23T14:23:19;11.55;;;3.33;;
22332;SDS011;11334;36.986;-121.936;2023-05-23T14:25:45;9.73;;;3.25;;
22332;SDS011;11334;36.986;-121.936;2023-05-23T14:28:12;11.63;;;3.50;;
22332;SDS011;11334;36.986;-121.936;2023-05-23T14:30:38;13.07;;;4.13;;